ビリニュス の空港の天気 - METARとTAF

ビリニュス国際空港 ( EYVI / VNO ) - リトアニア ビリニュス
飛行場実況気象(Metar)
観測時間04/24 19:20 EEST (04/24 16:20 UTC)
風向・風速南南東 6m/s
視程10km以上
天気現象
少しの雲 雲底高度 1490m
全天の4割程度の雲 雲底高度 3350m
気温19℃
湿度21%
気圧1022hPa
METAREYVI 241620Z 15011KT 9999 FEW049 SCT110 19/M04 Q1022 NOSIG
過去の天気等 Google飛行場航空写真 Wunderground天気予報

過去48時間のMETAR

飛行場予報(TAF)
発表時間: 4/24 14:58 EEST (4/24 11:58 UTC)
予報対象時間: 24日15時 EEST ~ 25日15時 EEST
風向・風速南東 9m/s 瞬間風速 15m/s
視程9000m
なし
24日19時 EEST ~ 24日21時 EEST に徐々に
風向・風速南東 4m/s
TAF COR EYVI 241158Z 2412/2512 14018G30KT 9000 NSC
BECMG 2416/2418 13008KT